createdAt,value
2022-12-19T00:00:32.083Z,35.05
2022-12-19T00:03:00.136Z,35.58
2022-12-19T00:05:28.555Z,36.38
2022-12-19T00:07:56.280Z,37.03
2022-12-19T00:10:25.678Z,36.83
2022-12-19T00:12:53.450Z,37.33
2022-12-19T00:15:22.546Z,36.40
2022-12-19T00:17:50.708Z,36.70
2022-12-19T00:20:18.881Z,34.88
2022-12-19T00:22:46.868Z,36.60
2022-12-19T00:25:14.817Z,35.60
2022-12-19T00:27:43.837Z,36.67
2022-12-19T00:30:13.030Z,37.38
2022-12-19T00:32:42.173Z,36.92
2022-12-19T00:35:10.455Z,34.08
2022-12-19T00:37:38.453Z,34.80
2022-12-19T00:40:12.290Z,33.78
2022-12-19T00:42:40.081Z,34.67
2022-12-19T00:45:08.505Z,32.88
2022-12-19T00:47:36.863Z,36.17
2022-12-19T00:50:06.979Z,37.28
2022-12-19T00:52:34.761Z,34.40
2022-12-19T00:55:02.621Z,35.15
2022-12-19T00:57:32.718Z,36.55
2022-12-19T01:00:00.492Z,35.55
2022-12-19T01:02:28.277Z,34.97
2022-12-19T01:04:56.488Z,36.40
2022-12-19T01:07:26.112Z,35.15
2022-12-19T01:09:53.899Z,34.90
2022-12-19T01:12:39.174Z,34.15
2022-12-19T01:15:08.265Z,35.88
2022-12-19T01:17:38.896Z,35.10
2022-12-19T01:20:12.498Z,35.78
2022-12-19T01:22:41.692Z,35.67
2022-12-19T01:25:09.768Z,34.25
2022-12-19T01:27:37.898Z,35.58
2022-12-19T01:30:07.159Z,33.95
2022-12-19T01:32:36.182Z,35.95
2022-12-19T01:35:04.109Z,36.60
2022-12-19T01:37:31.898Z,35.90
2022-12-19T01:40:01.070Z,36.33
2022-12-19T01:42:35.634Z,35.83
2022-12-19T01:45:30.373Z,35.65
2022-12-19T01:48:16.102Z,37.90
2022-12-19T01:51:01.061Z,35.88
2022-12-19T01:53:34.583Z,33.50
2022-12-19T01:56:10.153Z,33.03
2022-12-19T01:58:40.891Z,35.25
2022-12-19T02:01:08.727Z,35.50
2022-12-19T02:03:39.030Z,37.33
2022-12-19T02:06:08.936Z,34.15
2022-12-19T02:08:37.459Z,35.53
2022-12-19T02:11:06.893Z,35.45
2022-12-19T02:13:35.278Z,37.17
2022-12-19T02:16:16.651Z,35.45
2022-12-19T02:18:53.813Z,35.47
2022-12-19T02:21:36.992Z,37.22
2022-12-19T02:24:48.223Z,35.03
2022-12-19T02:28:06.834Z,36.13
2022-12-19T02:30:51.804Z,34.42
2022-12-19T02:33:27.383Z,37.17
2022-12-19T02:35:58.479Z,37.03
2022-12-19T02:38:33.993Z,36.37
2022-12-19T02:41:06.889Z,37.30
2022-12-19T02:43:40.464Z,35.28
2022-12-19T02:46:12.521Z,35.22
2022-12-19T02:48:41.369Z,37.00
2022-12-19T02:51:09.301Z,36.10
2022-12-19T02:53:38.321Z,47.88
2022-12-19T02:56:22.333Z,35.92
2022-12-19T02:59:05.639Z,37.38
2022-12-19T03:01:47.688Z,35.25
2022-12-19T03:07:05.057Z,33.33
2022-12-19T03:09:39.108Z,34.47
2022-12-19T03:12:14.243Z,34.80
2022-12-19T03:14:46.676Z,35.55
2022-12-19T03:17:23.244Z,34.80
2022-12-19T03:19:51.108Z,35.70
2022-12-19T03:22:19.000Z,36.00
2022-12-19T03:24:47.102Z,34.22
2022-12-19T03:27:20.183Z,35.50
2022-12-19T03:29:53.902Z,33.28
2022-12-19T03:32:25.664Z,35.25
2022-12-19T03:34:58.876Z,35.83
2022-12-19T03:37:33.320Z,36.33
2022-12-19T03:40:09.358Z,41.90
2022-12-19T03:42:58.734Z,36.33
2022-12-19T03:45:32.267Z,35.95
2022-12-19T03:48:06.904Z,36.78
2022-12-19T03:50:43.662Z,37.28
2022-12-19T03:53:22.983Z,35.75
2022-12-19T03:56:00.112Z,35.88
2022-12-19T03:58:34.250Z,34.55
2022-12-19T04:01:04.876Z,35.92
2022-12-19T04:03:34.656Z,37.22
2022-12-19T04:06:04.193Z,36.85
2022-12-19T04:08:34.109Z,36.20
2022-12-19T04:11:08.650Z,36.97
2022-12-19T04:13:39.803Z,34.53
2022-12-19T04:16:16.416Z,35.93
2022-12-19T04:18:52.608Z,34.83
2022-12-19T04:21:23.845Z,34.70
2022-12-19T04:23:56.701Z,27.23
2022-12-19T04:26:26.237Z,36.53
2022-12-19T04:28:57.347Z,36.33
2022-12-19T04:31:25.787Z,36.67
2022-12-19T04:33:55.041Z,37.05
2022-12-19T04:36:23.072Z,36.42
2022-12-19T04:38:51.223Z,35.40
2022-12-19T04:41:19.102Z,35.35
2022-12-19T04:43:47.204Z,35.80
2022-12-19T04:46:15.706Z,37.42
2022-12-19T04:48:43.572Z,35.20
2022-12-19T04:51:13.293Z,35.22
2022-12-19T04:53:41.183Z,36.35
2022-12-19T04:56:10.556Z,35.70
2022-12-19T04:58:39.250Z,36.80
2022-12-19T05:01:09.681Z,37.15
2022-12-19T05:03:37.814Z,35.58
2022-12-19T05:06:07.463Z,36.17
2022-12-19T05:08:37.741Z,37.00
2022-12-19T05:11:07.210Z,36.38
2022-12-19T05:13:35.389Z,37.30
2022-12-19T05:16:05.616Z,38.15
2022-12-19T05:18:33.820Z,36.53
2022-12-19T05:21:01.860Z,36.22
2022-12-19T05:23:30.134Z,36.55
2022-12-19T05:26:00.783Z,35.03
2022-12-19T05:28:29.674Z,37.60
2022-12-19T05:31:04.234Z,36.80
2022-12-19T05:33:32.058Z,36.88
2022-12-19T05:35:59.833Z,37.78
2022-12-19T05:38:28.302Z,38.97
2022-12-19T05:40:56.202Z,37.40
2022-12-19T05:43:25.534Z,34.83
2022-12-19T05:45:53.881Z,37.90
2022-12-19T05:48:21.626Z,38.33
2022-12-19T05:50:50.698Z,35.05
2022-12-19T05:53:23.330Z,35.95
2022-12-19T05:55:53.719Z,37.95
2022-12-19T05:58:21.530Z,37.75
2022-12-19T06:00:50.810Z,36.38
2022-12-19T06:03:18.624Z,37.50
2022-12-19T06:05:46.389Z,36.03
2022-12-19T06:08:14.172Z,37.15
2022-12-19T06:10:42.377Z,36.80
2022-12-19T06:13:10.267Z,36.03
2022-12-19T06:15:38.333Z,34.90
2022-12-19T06:18:08.085Z,36.38
2022-12-19T06:20:36.277Z,36.95
2022-12-19T06:23:04.142Z,38.22
2022-12-19T06:25:32.019Z,38.17
2022-12-19T06:28:00.158Z,42.03
2022-12-19T06:30:28.288Z,40.38
2022-12-19T06:32:56.065Z,38.13
2022-12-19T06:35:25.695Z,38.75
2022-12-19T06:37:57.904Z,36.95
2022-12-19T06:40:46.072Z,37.40
2022-12-19T06:43:14.132Z,37.85
2022-12-19T06:45:42.384Z,36.90
2022-12-19T06:48:10.533Z,38.20
2022-12-19T06:50:40.010Z,37.35
2022-12-19T06:53:07.745Z,36.17
2022-12-19T06:55:37.473Z,37.15
2022-12-19T06:58:05.990Z,35.95
2022-12-19T07:00:38.005Z,35.72
2022-12-19T07:05:34.833Z,35.05
2022-12-19T07:08:04.026Z,37.58
2022-12-19T07:10:31.966Z,39.17
2022-12-19T07:12:59.758Z,37.65
2022-12-19T07:15:28.269Z,40.13
2022-12-19T07:17:56.491Z,37.35
2022-12-19T07:20:24.298Z,36.58
2022-12-19T07:22:54.032Z,37.95
2022-12-19T07:25:23.691Z,38.47
2022-12-19T07:27:53.638Z,39.35
2022-12-19T07:30:22.640Z,36.85
2022-12-19T07:32:50.390Z,38.50
2022-12-19T07:35:18.122Z,37.13
2022-12-19T07:37:45.903Z,37.80
2022-12-19T07:40:15.173Z,39.75
2022-12-19T07:42:44.848Z,38.05
2022-12-19T07:45:13.366Z,37.05
2022-12-19T07:47:41.192Z,37.38
2022-12-19T07:50:09.703Z,37.25
2022-12-19T07:52:37.464Z,37.80
2022-12-19T07:55:05.730Z,37.22
2022-12-19T07:57:33.878Z,34.70
2022-12-19T08:00:03.550Z,35.17
2022-12-19T08:02:31.841Z,35.78
2022-12-19T08:04:59.729Z,36.63
2022-12-19T08:07:28.286Z,33.85
2022-12-19T08:09:57.433Z,36.28
2022-12-19T08:12:25.349Z,36.88
2022-12-19T08:14:57.088Z,32.85
2022-12-19T08:17:27.296Z,33.13
2022-12-19T08:19:55.175Z,36.78
2022-12-19T08:22:23.944Z,34.15
2022-12-19T08:24:51.860Z,33.85
2022-12-19T08:27:19.920Z,34.45
2022-12-19T08:29:48.014Z,35.45
2022-12-19T08:32:20.807Z,33.70
2022-12-19T08:34:51.528Z,35.30
2022-12-19T08:37:19.283Z,34.20
2022-12-19T08:39:47.435Z,33.60
2022-12-19T08:42:15.321Z,33.13
2022-12-19T08:44:43.078Z,34.95
2022-12-19T08:47:10.916Z,36.00
2022-12-19T08:49:38.726Z,35.35
2022-12-19T08:52:07.916Z,33.00
2022-12-19T08:54:35.785Z,34.25
2022-12-19T08:57:03.622Z,35.13
2022-12-19T08:59:32.254Z,34.40
2022-12-19T09:02:01.317Z,34.95
2022-12-19T09:05:28.511Z,35.35
2022-12-19T09:07:19.206Z,35.10
2022-12-19T09:09:47.186Z,33.03
2022-12-19T09:12:16.046Z,32.75
2022-12-19T09:14:44.271Z,34.53
2022-12-19T09:17:12.209Z,32.67
2022-12-19T09:19:40.108Z,33.20
2022-12-19T09:22:10.820Z,33.45
2022-12-19T09:24:40.484Z,31.80
2022-12-19T09:27:08.315Z,34.20
2022-12-19T09:29:36.303Z,31.80
2022-12-19T09:32:04.574Z,32.22
2022-12-19T09:34:38.096Z,31.55
2022-12-19T09:37:08.237Z,31.80
2022-12-19T09:39:36.535Z,31.23
2022-12-19T09:42:24.468Z,31.67
2022-12-19T09:45:06.451Z,32.88
2022-12-19T09:47:38.975Z,33.92
2022-12-19T09:50:23.790Z,33.13
2022-12-19T09:52:58.804Z,34.17
2022-12-19T09:55:30.504Z,36.50
2022-12-19T09:58:08.085Z,35.45
2022-12-19T10:00:40.520Z,34.75
2022-12-19T10:03:18.785Z,34.10
2022-12-19T10:07:11.013Z,34.92
2022-12-19T10:09:00.693Z,32.92
2022-12-19T10:12:41.104Z,33.08
2022-12-19T10:14:53.019Z,33.22
2022-12-19T10:17:28.307Z,34.03
2022-12-19T10:20:13.318Z,33.33
2022-12-19T10:22:51.909Z,33.60
2022-12-19T10:25:30.209Z,33.80
2022-12-19T10:28:07.623Z,32.70
2022-12-19T10:30:44.827Z,32.03
2022-12-19T10:33:22.593Z,34.58
2022-12-19T10:35:55.536Z,34.33
2022-12-19T10:38:32.427Z,34.25
2022-12-19T10:41:16.084Z,33.63
2022-12-19T10:43:53.938Z,32.25
2022-12-19T10:46:36.923Z,31.58
2022-12-19T10:49:14.057Z,32.42
2022-12-19T10:51:42.964Z,33.20
2022-12-19T10:54:11.086Z,32.67
2022-12-19T10:56:38.895Z,33.65
2022-12-19T10:59:17.426Z,33.90
2022-12-19T11:01:54.199Z,31.73
2022-12-19T11:04:32.413Z,31.63
2022-12-19T11:07:18.178Z,30.58
2022-12-19T11:10:05.679Z,33.05
2022-12-19T11:16:56.632Z,29.17
2022-12-19T11:18:59.939Z,32.58
2022-12-19T11:29:15.256Z,32.92
2022-12-19T11:29:40.408Z,33.38
2022-12-19T11:29:55.808Z,33.33
2022-12-19T11:30:35.950Z,32.83
2022-12-19T11:32:42.729Z,31.67
2022-12-19T11:35:22.759Z,30.38
2022-12-19T11:37:56.291Z,33.03
2022-12-19T11:40:34.088Z,33.15
2022-12-19T11:43:43.277Z,32.58
2022-12-19T11:46:02.195Z,31.23
2022-12-19T11:48:37.851Z,31.67
2022-12-19T11:51:17.600Z,31.10
2022-12-19T11:53:53.664Z,31.05
2022-12-19T11:56:25.484Z,32.63
2022-12-19T11:58:57.340Z,30.60
2022-12-19T12:01:44.434Z,30.45
2022-12-19T12:04:33.647Z,32.15
2022-12-19T12:07:11.751Z,31.23
2022-12-19T12:20:03.400Z,29.80
2022-12-19T12:27:34.775Z,30.60
2022-12-19T12:31:17.154Z,32.80
2022-12-19T12:31:22.673Z,30.48
2022-12-19T12:31:54.263Z,30.67
2022-12-19T12:32:03.749Z,32.22
2022-12-19T12:35:09.296Z,31.25
2022-12-19T12:35:28.860Z,30.02
2022-12-19T12:39:58.059Z,30.92
2022-12-19T12:42:40.195Z,30.52
2022-12-19T12:45:20.845Z,29.30
2022-12-19T12:47:52.420Z,32.60
2022-12-19T12:50:24.052Z,31.00
2022-12-19T12:52:56.307Z,32.80
2022-12-19T12:55:29.897Z,33.30
2022-12-19T12:57:58.311Z,36.45
2022-12-19T13:00:29.920Z,33.92
2022-12-19T13:03:06.644Z,36.47
2022-12-19T13:05:42.085Z,33.08
2022-12-19T13:08:33.069Z,34.05
2022-12-19T13:11:04.003Z,35.47
2022-12-19T13:13:53.147Z,35.83
2022-12-19T13:16:53.442Z,35.35
2022-12-19T13:19:28.506Z,35.90
2022-12-19T13:22:18.836Z,34.45
2022-12-19T13:24:51.188Z,32.63
2022-12-19T13:27:41.998Z,32.28
2022-12-19T13:30:18.973Z,34.65
2022-12-19T13:33:10.171Z,33.55
2022-12-19T13:39:01.732Z,33.92
2022-12-19T13:40:00.093Z,34.95
2022-12-19T13:41:45.259Z,33.22
2022-12-19T13:44:15.385Z,34.67
2022-12-19T13:46:44.676Z,35.65
2022-12-19T13:49:16.255Z,36.17
2022-12-19T13:51:48.410Z,36.00
2022-12-19T13:54:22.904Z,36.28
2022-12-19T13:56:51.339Z,35.97
2022-12-19T13:59:22.930Z,37.10
2022-12-19T14:01:53.218Z,39.60
2022-12-19T14:04:30.258Z,37.97
2022-12-19T14:07:01.744Z,36.97
2022-12-19T14:11:28.779Z,37.33
2022-12-19T14:13:55.523Z,36.25
2022-12-19T14:15:34.521Z,38.88
2022-12-19T14:18:21.875Z,40.20
2022-12-19T14:22:05.734Z,38.60
2022-12-19T14:23:43.856Z,37.55
2022-12-19T14:28:24.035Z,37.70
2022-12-19T14:29:09.369Z,37.67
2022-12-19T14:31:58.591Z,39.72
2022-12-19T14:35:03.945Z,36.20
2022-12-19T14:37:31.656Z,37.65
2022-12-19T14:40:25.968Z,37.67
2022-12-19T14:43:56.627Z,39.75
2022-12-19T14:52:53.663Z,39.65
2022-12-19T14:54:10.246Z,42.40
2022-12-19T14:54:31.360Z,41.22
2022-12-19T14:56:12.224Z,42.22
2022-12-19T14:58:52.467Z,43.67
2022-12-19T15:01:23.962Z,42.63
2022-12-19T15:04:50.817Z,38.42
2022-12-19T15:07:06.620Z,37.97
2022-12-19T15:11:07.501Z,35.03
2022-12-19T15:14:47.899Z,34.15
2022-12-19T15:15:45.754Z,30.73
2022-12-19T15:18:23.768Z,31.65
2022-12-19T15:20:57.796Z,36.33
2022-12-19T15:23:27.574Z,32.70
2022-12-19T15:26:06.550Z,31.77
2022-12-19T15:28:41.819Z,31.10
2022-12-19T15:31:26.372Z,28.92
2022-12-19T15:34:32.411Z,27.92
2022-12-19T15:36:42.131Z,27.17
2022-12-19T15:39:11.340Z,26.67
2022-12-19T15:41:39.146Z,29.52
2022-12-19T15:44:11.112Z,31.27
2022-12-19T15:49:17.229Z,31.70
2022-12-19T15:51:45.390Z,35.42
2022-12-19T15:54:47.367Z,34.03
2022-12-19T15:57:02.549Z,38.47
2022-12-19T15:59:37.699Z,41.30
2022-12-19T16:02:17.643Z,40.67
2022-12-19T16:04:47.524Z,31.63
2022-12-19T16:07:17.800Z,27.30
2022-12-19T16:09:47.752Z,26.30
2022-12-19T16:12:18.040Z,31.42
2022-12-19T16:14:47.571Z,28.23
2022-12-19T16:17:20.996Z,28.98
2022-12-19T16:19:49.826Z,24.25
2022-12-19T16:22:19.736Z,25.90
2022-12-19T16:24:49.576Z,24.55
2022-12-19T16:27:23.786Z,24.92
2022-12-19T16:29:52.384Z,26.25
2022-12-19T16:32:24.669Z,22.73
2022-12-19T16:34:53.223Z,26.02
2022-12-19T16:37:21.199Z,27.65
2022-12-19T16:39:50.433Z,23.83
2022-12-19T16:42:19.286Z,22.50
2022-12-19T16:44:49.062Z,18.65
2022-12-19T16:47:19.052Z,19.30
2022-12-19T16:49:47.044Z,18.92
2022-12-19T16:52:15.422Z,26.00
2022-12-19T16:54:43.250Z,22.20
2022-12-19T16:57:20.919Z,25.58
2022-12-19T16:59:49.946Z,23.38
2022-12-19T17:02:42.422Z,26.65
2022-12-19T17:05:19.731Z,25.42
2022-12-19T17:07:48.024Z,29.10
2022-12-19T17:10:19.963Z,29.50
2022-12-19T17:12:53.563Z,29.25
2022-12-19T17:15:28.158Z,31.05
2022-12-19T17:17:58.152Z,31.13
2022-12-19T17:20:29.163Z,20.00
2022-12-19T17:22:57.045Z,19.75
2022-12-19T17:25:26.374Z,22.98
2022-12-19T17:27:56.826Z,27.80
2022-12-19T17:30:24.728Z,31.75
2022-12-19T17:32:55.711Z,30.73
2022-12-19T17:35:28.246Z,32.88
2022-12-19T17:37:58.239Z,32.85
2022-12-19T17:40:27.775Z,30.85
2022-12-19T17:42:57.552Z,33.00
2022-12-19T17:45:27.136Z,35.55
2022-12-19T17:48:02.256Z,35.63
2022-12-19T17:50:33.646Z,32.58
2022-12-19T17:53:03.080Z,35.58
2022-12-19T17:55:31.867Z,37.78
2022-12-19T17:58:01.100Z,31.27
2022-12-19T18:00:31.231Z,30.90
2022-12-19T18:03:02.957Z,35.22
2022-12-19T18:05:35.848Z,31.17
2022-12-19T18:08:05.029Z,32.60
2022-12-19T18:10:33.575Z,28.88
2022-12-19T18:13:02.778Z,32.83
2022-12-19T18:15:30.655Z,36.05
2022-12-19T18:17:58.815Z,33.70
2022-12-19T18:20:31.887Z,37.20
2022-12-19T18:23:01.551Z,35.42
2022-12-19T18:25:32.071Z,37.90
2022-12-19T18:28:00.250Z,36.50
2022-12-19T18:30:29.489Z,34.42
2022-12-19T18:32:59.855Z,36.92
2022-12-19T18:35:32.519Z,37.00
2022-12-19T18:38:01.845Z,36.28
2022-12-19T18:40:31.928Z,43.53
2022-12-19T18:43:00.048Z,42.15
2022-12-19T18:45:35.126Z,46.40
2022-12-19T18:48:05.266Z,48.75
2022-12-19T18:50:33.321Z,48.70
2022-12-19T18:53:01.730Z,49.90
2022-12-19T18:55:32.370Z,53.58
2022-12-19T18:58:00.324Z,48.85
2022-12-19T19:00:30.129Z,41.63
2022-12-19T19:02:59.978Z,42.00
2022-12-19T19:05:30.972Z,38.88
2022-12-19T19:07:59.049Z,40.05
2022-12-19T19:10:30.208Z,35.95
2022-12-19T19:13:02.729Z,35.83
2022-12-19T19:15:36.301Z,38.85
2022-12-19T19:18:05.974Z,36.67
2022-12-19T19:20:37.320Z,37.85
2022-12-19T19:23:08.488Z,34.90
2022-12-19T19:25:36.573Z,42.73
2022-12-19T19:28:05.826Z,43.78
2022-12-19T19:30:38.228Z,49.88
2022-12-19T19:33:11.616Z,48.08
2022-12-19T19:35:39.860Z,50.53
2022-12-19T19:38:09.937Z,49.08
2022-12-19T19:40:38.794Z,50.42
2022-12-19T19:43:06.986Z,50.35
2022-12-19T19:45:42.768Z,51.40
2022-12-19T19:48:11.300Z,48.80
2022-12-19T19:50:39.245Z,51.17
2022-12-19T19:53:07.053Z,50.20
2022-12-19T19:55:34.962Z,54.10
2022-12-19T19:58:02.858Z,51.63
2022-12-19T20:00:30.662Z,51.88
2022-12-19T20:03:05.581Z,53.60
2022-12-19T20:05:35.948Z,48.42
2022-12-19T20:08:03.791Z,51.33
2022-12-19T20:10:31.795Z,54.17
2022-12-19T20:12:59.879Z,52.03
2022-12-19T20:15:27.760Z,53.42
2022-12-19T20:17:55.629Z,52.17
2022-12-19T20:20:25.245Z,57.53
2022-12-19T20:22:53.221Z,58.92
2022-12-19T20:25:21.079Z,59.40
2022-12-19T20:27:48.914Z,59.30
2022-12-19T20:30:18.162Z,57.30
2022-12-19T20:32:46.234Z,53.67
2022-12-19T20:35:14.971Z,56.42
2022-12-19T20:37:44.777Z,59.10
2022-12-19T20:40:13.170Z,53.20
2022-12-19T20:42:41.008Z,50.75
2022-12-19T20:45:09.512Z,54.65
2022-12-19T20:47:37.704Z,58.00
2022-12-19T20:50:07.584Z,52.33
2022-12-19T20:52:35.526Z,53.33
2022-12-19T20:55:05.769Z,54.22
2022-12-19T20:57:33.613Z,54.65
2022-12-19T21:00:01.498Z,55.33
2022-12-19T21:02:46.253Z,56.03
2022-12-19T21:05:17.432Z,51.38
2022-12-19T21:07:45.372Z,51.45
2022-12-19T21:10:14.733Z,49.97
2022-12-19T21:12:47.572Z,49.97
2022-12-19T21:15:15.932Z,48.40
2022-12-19T21:17:43.799Z,49.00
2022-12-19T21:20:12.413Z,46.33
2022-12-19T21:22:40.191Z,54.10
2022-12-19T21:25:08.526Z,50.10
2022-12-19T21:27:37.749Z,51.33
2022-12-19T21:30:07.536Z,52.63
2022-12-19T21:32:35.915Z,52.15
2022-12-19T21:35:03.936Z,49.92
2022-12-19T21:37:32.104Z,46.42
2022-12-19T21:39:59.978Z,47.10
2022-12-19T21:42:27.830Z,52.17
2022-12-19T21:44:57.030Z,52.65
2022-12-19T21:47:24.848Z,52.00
2022-12-19T21:49:52.711Z,53.35
2022-12-19T21:52:20.507Z,52.78
2022-12-19T21:54:48.354Z,52.38
2022-12-19T21:57:16.221Z,54.85
2022-12-19T21:59:44.162Z,53.05
2022-12-19T22:02:13.788Z,54.78
2022-12-19T22:04:41.742Z,51.10
2022-12-19T22:07:09.940Z,53.08
2022-12-19T22:09:37.925Z,52.10
2022-12-19T22:12:06.260Z,52.88
2022-12-19T22:14:34.256Z,55.83
2022-12-19T22:17:02.165Z,48.20
2022-12-19T22:19:31.663Z,56.47
2022-12-19T22:21:59.840Z,49.95
2022-12-19T22:24:27.832Z,51.20
2022-12-19T22:26:55.900Z,49.33
2022-12-19T22:29:24.132Z,51.25
2022-12-19T22:31:52.227Z,49.00
2022-12-19T22:34:22.578Z,51.40
2022-12-19T22:36:51.775Z,49.25
2022-12-19T22:39:22.462Z,49.58
2022-12-19T22:41:50.678Z,49.13
2022-12-19T22:44:20.793Z,47.63
2022-12-19T22:46:49.251Z,52.33
2022-12-19T22:49:17.744Z,49.67
2022-12-19T22:51:45.744Z,44.15
2022-12-19T22:54:15.030Z,45.88
2022-12-19T22:56:42.871Z,44.53
2022-12-19T22:59:12.974Z,43.50
2022-12-19T23:01:43.334Z,44.22
2022-12-19T23:04:14.360Z,44.65
2022-12-19T23:06:42.964Z,42.25
2022-12-19T23:09:16.099Z,41.83
2022-12-19T23:11:47.367Z,41.13
2022-12-19T23:14:17.211Z,37.40
2022-12-19T23:16:45.719Z,34.47
2022-12-19T23:19:14.948Z,35.13
2022-12-19T23:21:42.924Z,38.35
2022-12-19T23:24:12.053Z,35.88
2022-12-19T23:26:41.379Z,31.65
2022-12-19T23:29:11.537Z,26.33
2022-12-19T23:31:40.856Z,25.17
2022-12-19T23:34:10.303Z,22.58
2022-12-19T23:39:26.548Z,22.35
2022-12-19T23:41:55.656Z,27.40
2022-12-19T23:44:23.663Z,31.55
2022-12-19T23:46:51.532Z,33.15
2022-12-19T23:49:19.332Z,38.22
2022-12-19T23:51:47.148Z,42.03
2022-12-19T23:54:15.017Z,43.60
2022-12-19T23:56:42.810Z,44.20
2022-12-19T23:59:12.046Z,49.97
